createdAt,value
2022-10-04T00:01:28.017Z,64.90
2022-10-04T00:04:07.436Z,64.97
2022-10-04T00:06:39.559Z,64.89
2022-10-04T00:09:13.416Z,65.53
2022-10-04T00:11:46.251Z,65.66
2022-10-04T00:14:20.986Z,65.59
2022-10-04T00:16:50.863Z,65.39
2022-10-04T00:19:45.295Z,66.57
2022-10-04T00:22:17.753Z,64.43
2022-10-04T00:25:20.149Z,64.34
2022-10-04T00:28:18.467Z,66.31
2022-10-04T00:31:03.760Z,64.89
2022-10-04T00:33:37.340Z,64.75
2022-10-04T00:36:37.906Z,65.31
2022-10-04T00:39:44.926Z,64.61
2022-10-04T00:42:54.742Z,64.78
2022-10-04T00:45:35.401Z,64.62
2022-10-04T00:48:31.399Z,65.48
2022-10-04T00:51:06.255Z,65.84
2022-10-04T00:53:54.895Z,64.54
2022-10-04T00:56:29.841Z,64.05
2022-10-04T00:59:28.594Z,66.26
2022-10-04T01:01:59.202Z,64.65
2022-10-04T01:04:40.948Z,65.14
2022-10-04T01:07:11.344Z,64.22
2022-10-04T01:09:48.436Z,65.12
2022-10-04T01:12:28.803Z,65.67
2022-10-04T01:15:06.348Z,65.23
2022-10-04T01:17:35.061Z,63.22
2022-10-04T01:20:04.217Z,65.14
2022-10-04T01:22:41.502Z,64.30
2022-10-04T01:25:10.644Z,64.26
2022-10-04T01:27:44.318Z,64.86
2022-10-04T01:30:14.935Z,65.17
2022-10-04T01:32:45.358Z,65.42
2022-10-04T01:35:17.122Z,65.96
2022-10-04T01:37:47.243Z,66.49
2022-10-04T01:40:16.431Z,66.12
2022-10-04T01:42:51.586Z,66.07
2022-10-04T01:45:29.900Z,65.26
2022-10-04T01:48:02.124Z,65.51
2022-10-04T01:50:35.025Z,66.58
2022-10-04T01:53:15.809Z,66.04
2022-10-04T01:55:47.432Z,66.63
2022-10-04T01:58:20.032Z,66.57
2022-10-04T02:00:55.427Z,66.13
2022-10-04T02:03:31.063Z,66.16
2022-10-04T02:06:02.523Z,66.14
2022-10-04T02:08:35.868Z,65.65
2022-10-04T02:11:06.463Z,66.11
2022-10-04T02:13:41.367Z,66.13
2022-10-04T02:16:12.965Z,66.05
2022-10-04T02:18:44.300Z,66.46
2022-10-04T02:21:15.379Z,65.91
2022-10-04T02:23:46.983Z,66.83
2022-10-04T02:26:15.606Z,66.44
2022-10-04T02:28:44.184Z,67.02
2022-10-04T02:31:30.734Z,66.36
2022-10-04T02:34:00.351Z,66.64
2022-10-04T02:36:30.696Z,66.61
2022-10-04T02:39:04.102Z,66.89
2022-10-04T02:41:36.821Z,66.45
2022-10-04T02:44:12.848Z,66.49
2022-10-04T02:46:51.525Z,67.00
2022-10-04T02:49:29.937Z,66.41
2022-10-04T02:52:05.528Z,67.25
2022-10-04T02:54:41.224Z,66.63
2022-10-04T02:57:16.850Z,67.96
2022-10-04T02:59:45.413Z,66.49
2022-10-04T03:02:29.561Z,67.17
2022-10-04T03:05:06.220Z,67.33
2022-10-04T03:07:37.093Z,66.75
2022-10-04T03:10:12.143Z,67.93
2022-10-04T03:12:42.055Z,67.89
2022-10-04T03:15:13.159Z,67.39
2022-10-04T03:17:43.150Z,67.53
2022-10-04T03:20:16.358Z,68.18
2022-10-04T03:22:47.445Z,68.10
2022-10-04T03:25:21.839Z,67.57
2022-10-04T03:27:52.537Z,68.23
2022-10-04T03:30:21.311Z,67.74
2022-10-04T03:32:51.648Z,68.34
2022-10-04T03:35:29.738Z,68.66
2022-10-04T03:37:59.269Z,67.86
2022-10-04T03:40:32.755Z,67.59
2022-10-04T03:43:04.695Z,67.88
2022-10-04T03:45:35.770Z,66.74
2022-10-04T03:48:08.232Z,66.54
2022-10-04T03:50:41.317Z,67.28
2022-10-04T03:53:17.394Z,67.36
2022-10-04T03:55:47.645Z,66.84
2022-10-04T03:58:19.289Z,66.68
2022-10-04T04:01:03.200Z,67.18
2022-10-04T04:03:39.297Z,65.58
2022-10-04T04:06:15.247Z,65.72
2022-10-04T04:08:46.971Z,65.64
2022-10-04T04:11:23.099Z,65.62
2022-10-04T04:13:59.878Z,65.54
2022-10-04T04:16:29.175Z,65.53
2022-10-04T04:19:04.756Z,65.47
2022-10-04T04:21:34.363Z,64.62
2022-10-04T04:24:08.344Z,65.32
2022-10-04T04:26:43.526Z,64.77
2022-10-04T04:29:19.827Z,64.69
2022-10-04T04:31:53.900Z,65.37
2022-10-04T04:34:26.100Z,64.90
2022-10-04T04:37:00.406Z,65.38
2022-10-04T04:39:37.537Z,66.20
2022-10-04T04:42:19.354Z,65.48
2022-10-04T04:44:50.371Z,64.97
2022-10-04T04:47:31.571Z,64.93
2022-10-04T04:50:06.927Z,65.18
2022-10-04T04:52:37.241Z,64.79
2022-10-04T04:55:08.183Z,65.90
2022-10-04T04:57:40.764Z,65.00
2022-10-04T05:00:17.706Z,65.31
2022-10-04T05:02:58.374Z,65.43
2022-10-04T05:05:30.484Z,64.88
2022-10-04T05:08:13.914Z,64.85
2022-10-04T05:10:44.474Z,63.64
2022-10-04T05:13:15.997Z,64.24
2022-10-04T05:15:45.232Z,65.24
2022-10-04T05:18:29.511Z,63.62
2022-10-04T05:21:04.504Z,61.64
2022-10-04T05:23:33.908Z,61.21
2022-10-04T05:26:04.356Z,61.14
2022-10-04T05:28:34.884Z,61.24
2022-10-04T05:31:34.476Z,61.08
2022-10-04T05:34:08.178Z,60.26
2022-10-04T05:36:54.877Z,61.37
2022-10-04T05:39:29.071Z,59.89
2022-10-04T05:42:07.917Z,59.95
2022-10-04T05:44:46.036Z,61.79
2022-10-04T05:47:16.176Z,61.67
2022-10-04T05:49:51.060Z,61.20
2022-10-04T05:52:30.668Z,59.94
2022-10-04T05:55:27.300Z,61.94
2022-10-04T05:58:26.200Z,60.41
2022-10-04T06:01:15.500Z,60.60
2022-10-04T06:04:11.239Z,60.79
2022-10-04T06:06:44.380Z,60.09
2022-10-04T06:09:23.096Z,58.62
2022-10-04T06:12:02.351Z,57.67
2022-10-04T06:15:00.480Z,59.95
2022-10-04T06:17:50.654Z,59.40
2022-10-04T06:20:43.848Z,58.24
2022-10-04T06:23:17.008Z,56.75
2022-10-04T06:25:48.789Z,56.38
2022-10-04T06:28:22.961Z,57.42
2022-10-04T06:31:16.309Z,57.65
2022-10-04T06:34:02.847Z,56.28
2022-10-04T06:36:52.808Z,54.81
2022-10-04T06:39:39.559Z,55.92
2022-10-04T06:42:34.716Z,56.61
2022-10-04T06:45:31.804Z,57.64
2022-10-04T06:48:33.681Z,56.55
2022-10-04T06:51:16.629Z,56.49
2022-10-04T06:53:59.231Z,54.57
2022-10-04T06:56:56.041Z,54.14
2022-10-04T06:59:41.831Z,54.00
2022-10-04T07:02:17.610Z,54.09
2022-10-04T07:05:07.713Z,53.20
2022-10-04T07:07:42.097Z,53.97
2022-10-04T07:10:27.373Z,53.94
2022-10-04T07:13:11.957Z,52.82
2022-10-04T07:15:48.795Z,53.05
2022-10-04T07:18:24.324Z,53.02
2022-10-04T07:21:02.207Z,52.52
2022-10-04T07:23:38.380Z,51.80
2022-10-04T07:26:16.398Z,51.23
2022-10-04T07:29:04.115Z,49.74
2022-10-04T07:31:35.485Z,50.28
2022-10-04T07:34:12.030Z,49.24
2022-10-04T07:36:47.177Z,50.99
2022-10-04T07:39:20.262Z,49.59
2022-10-04T07:41:54.456Z,49.26
2022-10-04T07:44:34.263Z,48.33
2022-10-04T07:47:11.070Z,50.42
2022-10-04T07:49:40.913Z,50.08
2022-10-04T07:52:26.001Z,50.43
2022-10-04T07:55:05.474Z,49.33
2022-10-04T07:57:45.161Z,48.86
2022-10-04T08:00:19.048Z,47.65
2022-10-04T08:03:06.891Z,48.67
2022-10-04T08:05:42.305Z,47.01
2022-10-04T08:08:25.722Z,48.52
2022-10-04T08:11:08.548Z,47.75
2022-10-04T08:13:46.200Z,48.17
2022-10-04T08:16:27.376Z,46.72
2022-10-04T08:19:11.868Z,47.22
2022-10-04T08:21:48.567Z,48.26
2022-10-04T08:24:26.193Z,47.70
2022-10-04T08:27:17.017Z,47.74
2022-10-04T08:30:04.756Z,47.90
2022-10-04T08:32:47.296Z,49.27
2022-10-04T08:35:34.411Z,47.80
2022-10-04T08:38:21.427Z,47.27
2022-10-04T08:41:27.987Z,45.49
2022-10-04T08:44:17.526Z,47.07
2022-10-04T08:47:12.027Z,45.85
2022-10-04T08:50:09.491Z,47.11
2022-10-04T08:53:11.074Z,47.40
2022-10-04T08:56:18.013Z,47.47
2022-10-04T08:59:17.467Z,46.20
2022-10-04T09:02:41.859Z,45.42
2022-10-04T09:05:31.251Z,48.06
2022-10-04T09:08:40.264Z,47.84
2022-10-04T09:11:28.236Z,47.54
2022-10-04T09:14:20.273Z,49.13
2022-10-04T09:16:50.637Z,48.79
2022-10-04T09:19:24.149Z,49.32
2022-10-04T09:22:14.695Z,49.56
2022-10-04T09:25:07.033Z,49.86
2022-10-04T09:27:58.669Z,49.29
2022-10-04T09:30:42.821Z,49.24
2022-10-04T09:33:52.245Z,49.77
2022-10-04T09:36:43.218Z,48.08
2022-10-04T09:39:37.084Z,47.61
2022-10-04T09:42:38.529Z,46.86
2022-10-04T09:45:45.752Z,48.06
2022-10-04T09:48:40.720Z,47.55
2022-10-04T09:51:24.828Z,46.59
2022-10-04T09:54:15.641Z,46.23
2022-10-04T09:57:13.807Z,46.42
2022-10-04T10:00:10.756Z,46.24
2022-10-04T10:03:12.239Z,46.78
2022-10-04T10:06:04.664Z,48.10
2022-10-04T10:08:45.541Z,47.29
2022-10-04T10:11:39.415Z,47.15
2022-10-04T10:14:52.126Z,47.79
2022-10-04T10:17:30.325Z,47.54
2022-10-04T10:20:31.309Z,47.42
2022-10-04T10:23:46.932Z,47.72
2022-10-04T10:26:38.296Z,48.19
2022-10-04T10:29:32.949Z,48.20
2022-10-04T10:32:20.729Z,48.81
2022-10-04T10:35:20.636Z,48.66
2022-10-04T10:38:15.501Z,47.71
2022-10-04T10:40:59.993Z,48.08
2022-10-04T10:43:55.578Z,48.46
2022-10-04T10:46:38.096Z,46.59
2022-10-04T10:49:31.986Z,47.27
2022-10-04T10:52:42.504Z,47.92
2022-10-04T10:55:30.363Z,47.43
2022-10-04T10:58:38.972Z,46.84
2022-10-04T11:01:35.771Z,46.32
2022-10-04T11:04:26.983Z,45.87
2022-10-04T11:07:16.567Z,47.18
2022-10-04T11:10:06.896Z,47.29
2022-10-04T11:12:58.068Z,47.29
2022-10-04T11:16:01.434Z,47.56
2022-10-04T11:19:07.806Z,48.62
2022-10-04T11:22:07.712Z,46.78
2022-10-04T11:25:01.879Z,51.21
2022-10-04T11:27:49.349Z,62.79
2022-10-04T11:30:23.648Z,68.24
2022-10-04T11:33:28.445Z,71.04
2022-10-04T11:36:34.380Z,71.01
2022-10-04T11:39:16.743Z,69.24
2022-10-04T11:41:52.377Z,71.01
2022-10-04T11:45:00.005Z,70.53
2022-10-04T11:47:43.247Z,70.64
2022-10-04T11:50:35.348Z,70.10
2022-10-04T11:53:37.388Z,69.68
2022-10-04T11:56:36.439Z,71.37
2022-10-04T11:59:22.048Z,71.65
2022-10-04T12:02:27.154Z,69.72
2022-10-04T12:05:39.387Z,68.96
2022-10-04T12:08:28.757Z,68.45
2022-10-04T12:11:26.761Z,69.02
2022-10-04T12:14:12.051Z,68.60
2022-10-04T12:17:04.062Z,68.36
2022-10-04T12:19:55.594Z,67.93
2022-10-04T12:22:40.262Z,66.46
2022-10-04T12:25:42.884Z,66.52
2022-10-04T12:28:27.955Z,65.48
2022-10-04T12:31:12.724Z,63.82
2022-10-04T12:33:50.461Z,63.87
2022-10-04T12:36:41.203Z,65.12
2022-10-04T12:39:22.297Z,63.83
2022-10-04T12:42:02.412Z,64.54
2022-10-04T12:44:45.873Z,64.62
2022-10-04T12:47:48.379Z,65.50
2022-10-04T12:50:27.337Z,64.42
2022-10-04T12:52:59.193Z,65.47
2022-10-04T12:55:48.793Z,65.16
2022-10-04T12:58:26.138Z,65.17
2022-10-04T13:01:02.319Z,62.63
2022-10-04T13:03:42.954Z,61.54
2022-10-04T13:06:22.191Z,63.59
2022-10-04T13:09:02.926Z,61.96
2022-10-04T13:11:50.237Z,63.04
2022-10-04T13:14:33.412Z,61.79
2022-10-04T13:17:34.845Z,62.20
2022-10-04T13:20:19.507Z,60.44
2022-10-04T13:22:57.736Z,61.15
2022-10-04T13:26:03.566Z,57.60
2022-10-04T13:28:39.701Z,59.25
2022-10-04T13:31:15.205Z,60.76
2022-10-04T13:33:50.947Z,58.89
2022-10-04T13:36:27.727Z,60.90
2022-10-04T13:39:25.613Z,60.17
2022-10-04T13:42:12.246Z,59.30
2022-10-04T13:45:03.189Z,59.50
2022-10-04T13:47:55.772Z,59.63
2022-10-04T13:50:38.382Z,60.41
2022-10-04T13:53:44.188Z,59.54
2022-10-04T13:56:40.610Z,60.11
2022-10-04T13:59:19.934Z,60.46
2022-10-04T14:02:29.950Z,61.31
2022-10-04T14:05:34.486Z,61.44
2022-10-04T14:08:36.895Z,61.91
2022-10-04T14:11:35.941Z,60.91
2022-10-04T14:14:45.268Z,60.29
2022-10-04T14:17:28.979Z,62.55
2022-10-04T14:20:24.227Z,61.98
2022-10-04T14:23:24.355Z,63.02
2022-10-04T14:26:20.337Z,62.25
2022-10-04T14:29:21.685Z,62.39
2022-10-04T14:32:20.657Z,64.51
2022-10-04T14:34:58.311Z,63.44
2022-10-04T14:38:04.992Z,62.65
2022-10-04T14:41:09.573Z,63.22
2022-10-04T14:44:15.957Z,65.63
2022-10-04T14:46:56.188Z,64.54
2022-10-04T14:49:40.057Z,63.63
2022-10-04T14:52:25.687Z,63.40
2022-10-04T14:54:58.799Z,63.17
2022-10-04T14:57:53.079Z,63.84
2022-10-04T15:00:23.890Z,63.01
2022-10-04T15:03:20.888Z,61.97
2022-10-04T15:06:11.158Z,61.71
2022-10-04T15:09:07.358Z,62.08
2022-10-04T15:12:21.555Z,62.41
2022-10-04T15:15:16.898Z,62.55
2022-10-04T15:18:00.101Z,63.72
2022-10-04T15:20:34.751Z,64.37
2022-10-04T15:23:16.122Z,64.33
2022-10-04T15:25:47.489Z,64.11
2022-10-04T15:28:36.216Z,64.86
2022-10-04T15:31:18.412Z,63.81
2022-10-04T15:34:06.739Z,63.27
2022-10-04T15:37:15.690Z,63.46
2022-10-04T15:40:30.799Z,63.77
2022-10-04T15:43:22.068Z,64.13
2022-10-04T15:46:26.860Z,63.98
2022-10-04T15:49:14.318Z,63.87
2022-10-04T15:52:04.771Z,63.24
2022-10-04T15:55:08.779Z,63.52
2022-10-04T15:57:56.865Z,63.71
2022-10-04T16:00:35.868Z,62.83
2022-10-04T16:03:18.445Z,63.42
2022-10-04T16:06:04.255Z,63.35
2022-10-04T16:09:06.560Z,61.92
2022-10-04T16:11:48.881Z,62.44
2022-10-04T16:14:40.223Z,63.12
2022-10-04T16:17:47.566Z,62.42
2022-10-04T16:21:09.309Z,61.77
2022-10-04T16:23:51.389Z,61.28
2022-10-04T16:26:56.352Z,61.02
2022-10-04T16:29:34.711Z,60.07
2022-10-04T16:32:16.996Z,60.77
2022-10-04T16:34:54.844Z,60.48
2022-10-04T16:37:56.586Z,60.12
2022-10-04T16:40:41.150Z,59.61
2022-10-04T16:43:26.432Z,59.33
2022-10-04T16:46:20.256Z,59.14
2022-10-04T16:48:56.275Z,58.59
2022-10-04T16:51:44.241Z,57.84
2022-10-04T16:54:44.424Z,59.13
2022-10-04T16:57:28.870Z,59.36
2022-10-04T17:00:00.753Z,59.21
2022-10-04T17:03:06.864Z,59.26
2022-10-04T17:05:59.135Z,58.66
2022-10-04T17:08:49.899Z,58.24
2022-10-04T17:12:01.949Z,57.73
2022-10-04T17:15:08.434Z,57.54
2022-10-04T17:17:54.422Z,57.25
2022-10-04T17:20:39.725Z,57.20
2022-10-04T17:23:46.845Z,57.32
2022-10-04T17:26:34.921Z,56.80
2022-10-04T17:29:17.227Z,56.81
2022-10-04T17:31:59.237Z,57.48
2022-10-04T17:34:47.035Z,57.45
2022-10-04T17:37:29.869Z,57.53
2022-10-04T17:40:22.222Z,58.00
2022-10-04T17:43:00.656Z,57.71
2022-10-04T17:45:45.573Z,58.15
2022-10-04T17:48:36.412Z,58.11
2022-10-04T17:51:31.823Z,58.52
2022-10-04T17:56:04.408Z,60.81
2022-10-04T17:58:43.277Z,60.91
2022-10-04T18:01:17.852Z,60.78
2022-10-04T18:03:52.800Z,61.44
2022-10-04T18:06:31.672Z,61.57
2022-10-04T18:09:04.332Z,62.60
2022-10-04T18:11:47.501Z,63.33
2022-10-04T18:14:42.238Z,63.17
2022-10-04T18:17:14.980Z,63.97
2022-10-04T18:19:55.064Z,64.10
2022-10-04T18:22:27.425Z,63.89
2022-10-04T18:25:17.431Z,64.42
2022-10-04T18:27:55.059Z,65.58
2022-10-04T18:30:24.528Z,65.90
2022-10-04T18:32:55.857Z,64.72
2022-10-04T18:35:39.740Z,64.93
2022-10-04T18:38:24.662Z,66.08
2022-10-04T18:40:59.757Z,66.35
2022-10-04T18:43:33.349Z,66.92
2022-10-04T18:46:16.017Z,65.88
2022-10-04T18:48:54.468Z,66.33
2022-10-04T18:51:27.889Z,65.95
2022-10-04T18:54:21.494Z,67.44
2022-10-04T18:57:00.992Z,64.28
2022-10-04T18:59:56.602Z,63.69
2022-10-04T19:02:35.069Z,64.00
2022-10-04T19:05:17.930Z,63.67
2022-10-04T19:07:59.188Z,64.46
2022-10-04T19:10:33.806Z,64.65
2022-10-04T19:13:15.588Z,65.19
2022-10-04T19:15:58.773Z,65.09
2022-10-04T19:18:44.675Z,64.00
2022-10-04T19:21:26.711Z,64.38
2022-10-04T19:24:18.398Z,64.18
2022-10-04T19:26:51.655Z,63.94
2022-10-04T19:29:34.192Z,64.77
2022-10-04T19:32:09.114Z,64.77
2022-10-04T19:34:49.223Z,66.02
2022-10-04T19:37:27.015Z,66.95
2022-10-04T19:40:07.506Z,66.09
2022-10-04T19:42:46.205Z,66.08
2022-10-04T19:45:27.177Z,65.71
2022-10-04T19:48:03.176Z,65.38
2022-10-04T19:50:37.260Z,65.41
2022-10-04T19:53:16.508Z,64.09
2022-10-04T19:55:52.755Z,64.45
2022-10-04T19:58:32.099Z,64.36
2022-10-04T20:01:14.286Z,64.39
2022-10-04T20:03:45.825Z,63.83
2022-10-04T20:06:26.325Z,63.65
2022-10-04T20:09:02.273Z,63.57
2022-10-04T20:11:49.632Z,64.09
2022-10-04T20:15:02.497Z,63.16
2022-10-04T20:17:34.473Z,61.79
2022-10-04T20:20:04.928Z,62.66
2022-10-04T20:22:56.693Z,63.24
2022-10-04T20:26:07.550Z,62.53
2022-10-04T20:28:44.551Z,62.72
2022-10-04T20:31:52.190Z,62.34
2022-10-04T20:34:32.776Z,61.99
2022-10-04T20:37:03.646Z,61.80
2022-10-04T20:40:02.352Z,63.38
2022-10-04T20:42:39.369Z,63.42
2022-10-04T20:45:23.669Z,61.78
2022-10-04T20:47:57.740Z,61.79
2022-10-04T20:50:49.812Z,62.03
2022-10-04T20:53:24.533Z,61.90
2022-10-04T20:56:09.376Z,61.11
2022-10-04T20:58:37.999Z,61.36
2022-10-04T21:01:40.095Z,61.30
2022-10-04T21:04:15.864Z,60.80
2022-10-04T21:07:01.542Z,59.86
2022-10-04T21:09:35.017Z,60.94
2022-10-04T21:12:04.363Z,61.00
2022-10-04T21:14:36.327Z,61.30
2022-10-04T21:17:06.199Z,60.56
2022-10-04T21:19:46.980Z,61.17
2022-10-04T21:22:40.953Z,61.17
2022-10-04T21:25:32.206Z,61.44
2022-10-04T21:28:35.674Z,62.80
2022-10-04T21:31:07.203Z,61.84
2022-10-04T21:33:37.092Z,61.92
2022-10-04T21:36:07.456Z,62.47
2022-10-04T21:38:36.026Z,61.11
2022-10-04T21:41:06.906Z,62.00
2022-10-04T21:43:47.746Z,61.10
2022-10-04T21:46:20.241Z,62.10
2022-10-04T21:48:52.067Z,62.32
2022-10-04T21:51:23.871Z,61.54
2022-10-04T21:53:52.332Z,60.84
2022-10-04T21:56:24.837Z,62.05
2022-10-04T21:58:53.359Z,62.62
2022-10-04T22:01:21.840Z,62.01
2022-10-04T22:03:50.246Z,63.27
2022-10-04T22:06:20.233Z,63.47
2022-10-04T22:08:49.705Z,63.33
2022-10-04T22:11:18.416Z,63.63
2022-10-04T22:13:55.498Z,64.30
2022-10-04T22:16:24.097Z,65.36
2022-10-04T22:18:52.641Z,63.31
2022-10-04T22:21:21.018Z,63.90
2022-10-04T22:23:52.192Z,64.84
2022-10-04T22:26:23.623Z,64.59
2022-10-04T22:28:55.179Z,65.60
2022-10-04T22:31:27.597Z,64.83
2022-10-04T22:33:56.924Z,63.91
2022-10-04T22:36:28.461Z,63.95
2022-10-04T22:39:01.926Z,63.09
2022-10-04T22:41:33.281Z,64.51
2022-10-04T22:44:11.666Z,64.78
2022-10-04T22:46:48.183Z,65.17
2022-10-04T22:49:19.303Z,64.68
2022-10-04T22:51:50.221Z,64.78
2022-10-04T22:54:22.110Z,64.61
2022-10-04T22:56:50.968Z,64.42
2022-10-04T22:59:22.209Z,62.77
2022-10-04T23:01:50.807Z,63.63
2022-10-04T23:04:24.601Z,64.00
2022-10-04T23:06:54.196Z,64.32
2022-10-04T23:09:24.788Z,65.86
2022-10-04T23:11:53.239Z,66.12
2022-10-04T23:14:24.301Z,66.69
2022-10-04T23:16:55.297Z,66.49
2022-10-04T23:19:24.005Z,67.14
2022-10-04T23:21:52.423Z,66.66
2022-10-04T23:24:23.539Z,67.19
2022-10-04T23:26:57.295Z,67.96
2022-10-04T23:29:33.029Z,67.18
2022-10-04T23:32:10.884Z,67.83
2022-10-04T23:34:52.962Z,67.99
2022-10-04T23:37:27.075Z,66.98
2022-10-04T23:39:55.840Z,67.82
2022-10-04T23:42:29.888Z,67.85
2022-10-04T23:45:02.362Z,66.99
2022-10-04T23:47:35.044Z,66.87
2022-10-04T23:50:08.659Z,67.59
2022-10-04T23:52:40.080Z,67.66
2022-10-04T23:55:17.190Z,67.15
2022-10-04T23:57:45.886Z,68.04
